Time;durP1;ratioP1;P1;durP2;ratioP2;P2;SDS_P1;SDS_P2;PMS_P1;PMS_P2;Temp;Humidity;BMP_temperature;BMP_pressure;BME280_temperature;BME280_humidity;BME280_pressure;Samples;Min_cycle;Max_cycle;Signal;HPM_P1;HPM_P2
2023/11/16 00:00:13;;;;;;;22.95;16.83;;;;;;;-145.63;57.03;39391.91;4991740;28;20033;-72
2023/11/16 00:02:42;;;;;;;21.63;17.50;;;;;;;-145.63;57.50;39388.00;5003249;28;20026;-71
2023/11/16 00:05:16;;;;;;;22.80;17.45;;;;;;;-145.63;57.76;39434.94;4985995;28;20323;-71
2023/11/16 00:07:46;;;;;;;20.67;16.52;;;;;;;-145.63;57.68;39397.78;5000704;28;20331;-70
2023/11/16 00:10:16;;;;;;;20.80;15.88;;;;;;;-145.63;57.07;39380.19;5000558;28;20030;-71
2023/11/16 00:12:43;;;;;;;19.98;15.38;;;;;;;-145.63;56.76;39393.88;4994638;28;20176;-70
2023/11/16 00:15:09;;;;;;;18.48;14.57;;;;;;;-145.63;57.32;39401.69;4991327;28;20034;-70
2023/11/16 00:17:38;;;;;;;19.58;14.77;;;;;;;-145.63;57.47;39366.50;4997203;28;20031;-70
2023/11/16 00:20:07;;;;;;;18.95;15.82;;;;;;;-145.63;57.24;39442.78;5004869;28;20034;-71
2023/11/16 00:22:33;;;;;;;17.42;14.68;;;;;;;-145.63;57.63;39350.84;4986695;28;20029;-70
2023/11/16 00:24:58;;;;;;;16.85;14.35;;;;;;;-145.63;56.99;39343.03;4997901;28;20081;-68
2023/11/16 00:27:26;;;;;;;15.65;13.52;;;;;;;-145.63;57.38;39413.44;5000397;28;20022;-71
2023/11/16 00:29:55;;;;;;;17.50;14.80;;;;;;;-145.63;57.34;39442.78;4978018;28;20042;-72
2023/11/16 00:32:21;;;;;;;18.80;15.23;;;;;;;-145.63;57.15;39376.28;4985607;28;20031;-70
2023/11/16 00:34:47;;;;;;;18.35;14.63;;;;;;;-145.63;57.44;39401.69;5012022;28;20030;-69
2023/11/16 00:37:13;;;;;;;20.08;15.43;;;;;;;-145.63;57.21;39391.91;5004620;28;20037;-69
2023/11/16 00:39:38;;;;;;;16.58;14.50;;;;;;;-145.63;57.80;39411.47;5016340;28;20310;-71
2023/11/16 00:42:05;;;;;;;18.92;15.35;;;;;;;-145.63;57.28;39491.66;5015781;28;20026;-71
2023/11/16 00:44:31;;;;;;;23.05;15.90;;;;;;;-145.63;57.47;39403.66;5001991;28;20053;-71
2023/11/16 00:47:00;;;;;;;18.02;14.32;;;;;;;-145.63;57.76;39391.91;5005825;28;20203;-71
2023/11/16 00:49:26;;;;;;;19.38;15.45;;;;;;;-145.63;57.11;39364.53;5011716;28;20034;-70
2023/11/16 00:51:52;;;;;;;21.23;15.88;;;;;;;-145.63;57.32;38940.16;4990776;28;20034;-70
2023/11/16 00:54:18;;;;;;;22.10;16.27;;;;;;;-145.63;57.53;39386.06;4983792;28;20026;-70
2023/11/16 00:56:44;;;;;;;22.20;17.25;;;;;;;-145.63;57.14;39395.84;4997044;28;20098;-70
2023/11/16 00:59:10;;;;;;;26.27;18.70;;;;;;;-145.63;57.48;39372.34;5003107;28;20242;-70
2023/11/16 01:01:37;;;;;;;24.95;18.20;;;;;;;-145.63;57.75;38979.28;4983928;28;20031;-70
2023/11/16 01:04:13;;;;;;;21.98;17.85;;;;;;;-145.63;57.68;39399.75;4999330;28;20266;-71
2023/11/16 01:06:39;;;;;;;28.38;17.50;;;;;;;-145.63;57.46;39399.75;5015739;28;20028;-70
2023/11/16 01:09:09;;;;;;;24.55;19.02;;;;;;;-145.63;58.23;39403.66;5016397;28;20230;-70
2023/11/16 01:11:36;;;;;;;24.65;18.38;;;;;;;-145.63;58.59;39354.75;5001022;28;20042;-71
2023/11/16 01:14:03;;;;;;;26.40;19.05;;;;;;;-145.63;58.51;39368.44;4998760;28;20037;-70
2023/11/16 01:16:40;;;;;;;25.05;18.80;;;;;;;-145.63;58.92;39352.81;4982250;28;20102;-70
2023/11/16 01:19:09;;;;;;;26.00;18.95;;;;;;;-145.63;58.67;39388.00;4999353;28;20342;-70
2023/11/16 01:21:44;;;;;;;21.02;17.05;;;;;;;-145.63;58.99;39395.84;4992916;28;20370;-70
2023/11/16 01:24:11;;;;;;;27.33;17.67;;;;;;;-145.63;58.88;39395.84;4991678;28;20037;-70
2023/11/16 01:26:41;;;;;;;25.65;18.63;;;;;;;-145.63;58.59;39450.59;4998982;28;20082;-70
2023/11/16 01:29:18;;;;;;;24.25;17.52;;;;;;;-145.63;58.90;39411.47;4993701;28;20045;-70
2023/11/16 01:31:44;;;;;;;25.63;18.02;;;;;;;-145.63;58.59;39386.06;5001833;28;20026;-70
2023/11/16 01:34:10;;;;;;;23.27;17.65;;;;;;;-145.63;58.56;39395.84;4987907;28;20034;-70
2023/11/16 01:36:37;;;;;;;27.13;19.05;;;;;;;-145.63;58.48;39393.88;4995396;28;20034;-70
2023/11/16 01:39:04;;;;;;;24.52;17.80;;;;;;;-145.63;58.56;39378.22;4995803;28;20031;-71
2023/11/16 01:41:29;;;;;;;27.05;18.40;;;;;;;-145.63;58.66;39384.09;4985786;28;20034;-71
2023/11/16 01:43:56;;;;;;;27.50;19.30;;;;;;;-145.63;58.66;39395.84;5003165;28;20037;-70
2023/11/16 01:46:26;;;;;;;31.92;19.85;;;;;;;-145.63;59.42;39384.09;4985451;28;20027;-71
2023/11/16 01:48:56;;;;;;;31.23;19.60;;;;;;;-145.63;59.21;39413.44;5005169;28;20025;-71
2023/11/16 01:51:25;;;;;;;27.38;18.85;;;;;;;-145.63;59.13;39376.28;5002334;28;20140;-72
2023/11/16 01:53:59;;;;;;;30.70;19.75;;;;;;;-145.63;59.09;39433.00;4998656;28;20038;-71
2023/11/16 01:56:34;;;;;;;31.67;20.05;;;;;;;-145.63;59.23;39354.75;5008745;28;20022;-71
2023/11/16 01:59:06;;;;;;;28.60;18.38;;;;;;;-145.63;58.86;39388.00;5002312;28;20040;-71
2023/11/16 02:01:33;;;;;;;27.48;17.85;;;;;;;-145.63;59.04;39433.00;4993346;28;20094;-70
2023/11/16 02:04:04;;;;;;;24.95;17.45;;;;;;;-145.63;59.26;39372.34;5001922;28;20097;-70
2023/11/16 02:06:31;;;;;;;22.20;15.55;;;;;;;-145.63;59.29;39366.50;5013226;28;20029;-71
2023/11/16 02:08:58;;;;;;;21.80;16.30;;;;;;;-145.63;59.16;39423.22;5017426;28;20053;-71
2023/11/16 02:11:23;;;;;;;23.75;15.30;;;;;;;-145.63;59.11;39403.66;5002302;28;20034;-71
2023/11/16 02:13:50;;;;;;;22.65;15.57;;;;;;;-145.63;58.77;39368.44;4966443;28;20069;-71
2023/11/16 02:16:16;;;;;;;23.10;15.40;;;;;;;-145.63;59.03;39397.78;4999589;28;20029;-71
2023/11/16 02:18:42;;;;;;;23.65;15.68;;;;;;;-145.63;59.00;39192.44;5003047;28;20042;-71
2023/11/16 02:21:28;;;;;;;19.92;15.15;;;;;;;-145.63;59.68;39405.59;4992628;28;20030;-72
2023/11/16 02:23:54;;;;;;;23.83;16.50;;;;;;;-145.63;59.20;39378.22;4987988;28;20029;-70
2023/11/16 02:26:20;;;;;;;23.40;15.90;;;;;;;-145.63;59.23;39405.59;4999483;28;20068;-71
2023/11/16 02:28:45;;;;;;;24.15;17.23;;;;;;;-145.63;59.20;39397.78;4989473;28;20176;-71
2023/11/16 02:31:11;;;;;;;23.67;17.02;;;;;;;-145.63;59.17;39415.38;4994554;28;20030;-70
2023/11/16 02:33:37;;;;;;;27.35;17.00;;;;;;;-145.63;59.41;39407.56;4990879;28;20045;-70
2023/11/16 02:36:03;;;;;;;25.38;16.60;;;;;;;-145.63;59.20;39415.38;4989885;28;20034;-70
2023/11/16 02:38:29;;;;;;;27.40;17.60;;;;;;;-145.63;59.97;39389.97;5000749;28;20030;-71
2023/11/16 02:40:55;;;;;;;24.83;17.23;;;;;;;-145.63;59.89;39384.09;4998515;28;20023;-68
2023/11/16 02:43:21;;;;;;;23.42;16.38;;;;;;;-145.63;59.46;39337.16;4999582;28;20326;-69
2023/11/16 02:45:48;;;;;;;22.25;14.10;;;;;;;-145.63;59.37;39384.09;4989584;28;20328;-70
2023/11/16 02:48:15;;;;;;;19.80;13.52;;;;;;;-145.63;59.57;39391.91;5003493;28;20050;-72
2023/11/16 02:50:41;;;;;;;18.65;13.18;;;;;;;-145.63;59.88;39411.47;4999954;28;20061;-71
2023/11/16 02:53:08;;;;;;;20.35;13.60;;;;;;;-145.63;59.64;39384.09;4983125;28;20259;-70
2023/11/16 02:55:35;;;;;;;16.23;11.88;;;;;;;-145.63;59.99;39417.34;4987274;28;20203;-70
2023/11/16 02:58:00;;;;;;;15.85;10.80;;;;;;;-145.63;59.49;39405.59;5006343;28;20037;-70
2023/11/16 03:00:26;;;;;;;25.08;17.33;;;;;;;-145.63;59.67;39386.06;4997721;28;20031;-69
2023/11/16 03:02:52;;;;;;;15.15;11.20;;;;;;;-145.63;59.67;39354.75;4990913;28;20026;-69
2023/11/16 03:05:20;;;;;;;15.20;10.50;;;;;;;-145.63;59.24;39389.97;5006613;28;20363;-70
2023/11/16 03:07:48;;;;;;;16.30;10.88;;;;;;;-145.63;59.46;39397.78;4997374;28;20026;-71
2023/11/16 03:10:14;;;;;;;13.60;10.40;;;;;;;-145.63;59.78;39407.56;5006374;28;20022;-69
2023/11/16 03:12:40;;;;;;;14.90;10.25;;;;;;;-145.63;59.95;39399.75;4997711;28;20180;-70
2023/11/16 03:15:07;;;;;;;15.43;10.63;;;;;;;-145.63;59.55;39415.38;5005983;28;20045;-69
2023/11/16 03:17:33;;;;;;;13.27;9.88;;;;;;;-145.63;59.38;39380.19;5006073;28;20082;-69
2023/11/16 03:19:59;;;;;;;14.48;10.43;;;;;;;-145.63;59.79;39395.84;4988408;28;20030;-69
2023/11/16 03:22:28;;;;;;;12.93;10.50;;;;;;;-145.63;59.88;39403.66;4992609;28;20026;-69
2023/11/16 03:24:54;;;;;;;14.73;10.35;;;;;;;-145.63;59.60;39401.69;4999932;28;20097;-69
2023/11/16 03:27:23;;;;;;;15.85;11.55;;;;;;;-145.63;60.03;39368.44;4994530;28;20061;-69
2023/11/16 03:29:49;;;;;;;14.82;10.65;;;;;;;-145.63;60.13;39354.75;4996024;28;20063;-70
2023/11/16 03:32:15;;;;;;;14.73;11.25;;;;;;;-145.63;59.95;39407.56;4996238;28;20022;-70
2023/11/16 03:34:41;;;;;;;12.98;10.50;;;;;;;-145.63;59.53;39388.00;5004775;28;20476;-70
2023/11/16 03:37:07;;;;;;;15.18;10.82;;;;;;;-145.63;59.67;39374.31;5004502;28;20361;-70
2023/11/16 03:39:34;;;;;;;18.20;11.80;;;;;;;-145.63;59.71;39423.22;4995017;28;20054;-71
2023/11/16 03:42:04;;;;;;;16.73;11.05;;;;;;;-145.63;59.68;39364.53;4989897;28;20049;-70
2023/11/16 03:44:30;;;;;;;14.77;10.38;;;;;;;-145.63;59.64;39368.44;4986920;28;20074;-70
2023/11/16 03:46:56;;;;;;;13.65;10.88;;;;;;;-145.63;59.51;39395.84;5005466;28;20302;-71
2023/11/16 03:49:23;;;;;;;14.07;11.23;;;;;;;-145.63;59.53;39376.28;4999810;28;20077;-71
2023/11/16 03:51:49;;;;;;;16.65;12.13;;;;;;;-145.63;59.17;39386.06;5002262;28;20313;-71
2023/11/16 03:54:18;;;;;;;16.17;11.95;;;;;;;-145.63;59.06;39376.28;5005781;28;20092;-71
2023/11/16 03:56:44;;;;;;;16.48;12.60;;;;;;;-145.63;59.63;39374.31;5004374;28;20123;-71
2023/11/16 03:59:15;;;;;;;17.92;12.68;;;;;;;-145.63;59.78;39395.84;5004132;28;20026;-71
2023/11/16 04:01:41;;;;;;;16.93;11.93;;;;;;;-145.63;59.49;39372.34;4999220;28;20199;-70
2023/11/16 04:04:10;;;;;;;15.27;11.45;;;;;;;-145.63;59.11;39376.28;5004640;28;20041;-71
2023/11/16 04:06:37;;;;;;;16.15;12.48;;;;;;;-145.63;59.02;39411.47;4995653;28;20050;-71
2023/11/16 04:09:05;;;;;;;17.27;12.40;;;;;;;-145.63;59.34;39366.50;4989643;28;20318;-70
2023/11/16 04:11:32;;;;;;;18.02;12.55;;;;;;;-145.63;59.16;39388.00;5004301;28;20023;-71
2023/11/16 04:13:58;;;;;;;18.05;13.02;;;;;;;-145.63;58.94;39370.41;4985535;28;20081;-72
2023/11/16 04:16:24;;;;;;;17.60;13.07;;;;;;;-145.63;59.16;39376.28;5000846;28;20038;-71
2023/11/16 04:18:55;;;;;;;16.20;12.45;;;;;;;-145.63;59.10;39368.44;5004939;28;20357;-70
2023/11/16 04:21:24;;;;;;;19.15;12.95;;;;;;;-145.63;59.80;39378.22;4997820;28;20237;-71
2023/11/16 04:23:52;;;;;;;18.58;12.45;;;;;;;-145.63;59.74;39391.91;4988420;28;20102;-70
2023/11/16 04:26:21;;;;;;;19.50;13.85;;;;;;;-145.63;59.49;39366.50;5003816;28;20041;-70
2023/11/16 04:28:51;;;;;;;19.15;13.57;;;;;;;-145.63;59.47;39403.66;5001067;28;20302;-69
2023/11/16 04:31:20;;;;;;;16.13;11.63;;;;;;;-145.63;59.74;38803.28;4999120;28;20037;-69
2023/11/16 04:33:51;;;;;;;18.33;12.30;;;;;;;-145.63;59.35;39368.44;4994637;28;20030;-69
2023/11/16 04:36:29;;;;;;;16.58;12.60;;;;;;;-145.63;59.41;39364.53;4997436;28;20219;-69
2023/11/16 04:38:58;;;;;;;14.40;11.20;;;;;;;-145.63;58.71;39386.06;4994360;28;20498;-69
2023/11/16 04:41:30;;;;;;;15.85;11.35;;;;;;;-145.63;58.72;39403.66;4983982;28;20076;-69
2023/11/16 04:43:55;;;;;;;17.60;11.60;;;;;;;-145.63;58.74;39374.31;4984992;28;20334;-70
2023/11/16 04:46:22;;;;;;;16.45;11.48;;;;;;;-145.63;59.06;39380.19;4996064;28;20022;-68
2023/11/16 04:48:48;;;;;;;13.15;10.00;;;;;;;-145.63;58.95;39376.28;4995561;28;20199;-68
2023/11/16 04:51:17;;;;;;;14.02;11.13;;;;;;;-145.63;58.74;39403.66;5004653;28;20029;-69
2023/11/16 04:53:44;;;;;;;14.88;10.73;;;;;;;-145.63;58.85;39393.88;5002119;28;20126;-71
2023/11/16 04:56:10;;;;;;;12.32;10.05;;;;;;;-145.63;58.99;39388.00;4992799;28;20034;-69
2023/11/16 04:58:36;;;;;;;12.52;9.52;;;;;;;-145.63;59.36;39374.31;5004187;28;20077;-69
2023/11/16 05:01:02;;;;;;;10.95;9.02;;;;;;;-145.63;59.24;39389.97;4990252;28;20368;-68
2023/11/16 05:03:28;;;;;;;13.57;9.88;;;;;;;-145.63;58.36;39391.91;4992589;28;20026;-69
2023/11/16 05:05:53;;;;;;;12.00;9.18;;;;;;;-145.63;58.48;39401.69;4996298;28;20027;-68
2023/11/16 05:08:20;;;;;;;13.02;9.77;;;;;;;-145.63;59.11;39517.09;4993103;28;20046;-68
2023/11/16 05:10:47;;;;;;;14.85;9.75;;;;;;;-145.63;58.47;39378.22;4992199;28;20042;-67
2023/11/16 05:13:13;;;;;;;13.45;10.05;;;;;;;-145.63;58.38;39389.97;4998706;28;20026;-68
2023/11/16 05:15:41;;;;;;;13.45;10.35;;;;;;;-145.63;58.94;39421.25;4999788;28;20050;-69
2023/11/16 05:18:06;;;;;;;13.80;10.65;;;;;;;-145.63;59.05;39411.47;5002971;28;20042;-68
2023/11/16 05:20:32;;;;;;;15.13;10.85;;;;;;;-145.63;58.64;39407.56;5003368;28;20037;-68
2023/11/16 05:22:57;;;;;;;14.40;10.57;;;;;;;-145.63;59.14;39378.22;4984047;28;20030;-68
2023/11/16 05:25:24;;;;;;;12.80;9.98;;;;;;;-145.63;59.11;39364.53;4998938;28;20070;-68
2023/11/16 05:27:49;;;;;;;11.50;9.70;;;;;;;-145.63;58.53;39370.41;4992706;28;20073;-67
2023/11/16 05:30:15;;;;;;;13.02;10.18;;;;;;;-145.63;58.86;39362.59;4996172;28;20030;-68
2023/11/16 05:32:41;;;;;;;14.18;11.27;;;;;;;-145.63;58.92;39389.97;5001938;28;20319;-69
2023/11/16 05:35:08;;;;;;;14.70;11.73;;;;;;;-145.63;58.99;39401.69;4983838;28;20035;-69
2023/11/16 05:37:34;;;;;;;13.75;10.88;;;;;;;-145.63;58.72;39374.31;5002954;28;20030;-69
2023/11/16 05:40:05;;;;;;;13.13;10.77;;;;;;;-145.63;58.55;39329.34;4991240;28;20057;-69
2023/11/16 05:42:31;;;;;;;13.57;11.05;;;;;;;-145.63;58.08;39388.00;4991996;28;20029;-69
2023/11/16 05:44:57;;;;;;;14.27;11.20;;;;;;;-145.63;57.93;39395.84;4999716;28;20030;-69
2023/11/16 05:47:24;;;;;;;14.15;11.30;;;;;;;-145.63;58.17;39401.69;4999448;28;20058;-70
2023/11/16 05:49:49;;;;;;;12.80;10.98;;;;;;;-145.63;58.66;39413.44;5002156;28;20034;-69
2023/11/16 05:52:15;;;;;;;12.85;10.80;;;;;;;-145.63;58.49;39364.53;5003392;28;20537;-69
2023/11/16 05:54:41;;;;;;;16.73;13.75;;;;;;;-145.63;58.57;39331.28;4992821;28;20019;-69
2023/11/16 05:57:07;;;;;;;12.48;10.82;;;;;;;-145.63;58.97;39362.59;4998913;28;20358;-69
2023/11/16 05:59:33;;;;;;;12.25;10.73;;;;;;;-145.63;58.92;39352.81;5003400;28;20034;-71
2023/11/16 06:01:59;;;;;;;12.65;10.57;;;;;;;-145.63;58.81;39384.09;4998788;28;20027;-68
2023/11/16 06:04:25;;;;;;;12.43;10.77;;;;;;;-145.63;59.46;39413.44;4998874;28;20034;-70
2023/11/16 06:06:51;;;;;;;13.05;10.32;;;;;;;-145.63;58.66;39356.72;4998975;28;20022;-68
2023/11/16 06:09:17;;;;;;;12.00;10.25;;;;;;;-145.63;59.01;39429.06;5000084;28;20040;-69
2023/11/16 06:11:43;;;;;;;11.77;10.57;;;;;;;-145.63;58.68;39395.84;5008537;28;20034;-71
2023/11/16 06:14:09;;;;;;;11.15;10.05;;;;;;;-145.63;58.63;39378.22;5001887;28;20034;-69
2023/11/16 06:16:45;;;;;;;11.68;10.15;;;;;;;-145.63;58.43;39370.41;5003130;28;20032;-69
2023/11/16 06:19:13;;;;;;;12.63;9.95;;;;;;;-145.63;58.77;39372.34;5002906;28;20030;-68
2023/11/16 06:21:40;;;;;;;11.73;10.20;;;;;;;-145.63;58.45;39399.75;4992706;28;20026;-70
2023/11/16 06:24:09;;;;;;;11.18;10.07;;;;;;;-145.63;58.03;39419.31;4986535;28;20019;-70
2023/11/16 06:26:35;;;;;;;12.15;10.90;;;;;;;-145.63;58.48;39380.19;5002900;28;20030;-69
2023/11/16 06:29:01;;;;;;;10.88;9.77;;;;;;;-145.63;58.13;39399.75;4983505;28;20034;-69
2023/11/16 06:31:26;;;;;;;11.23;10.05;;;;;;;-145.63;58.28;39391.91;5001358;28;20022;-69
2023/11/16 06:33:53;;;;;;;10.15;9.20;;;;;;;-145.63;58.09;38363.31;4994996;28;20050;-69
2023/11/16 06:36:22;;;;;;;11.95;9.75;;;;;;;-145.63;58.28;39311.72;5002015;28;20033;-69
2023/11/16 06:38:47;;;;;;;10.43;8.68;;;;;;;-145.63;58.03;39380.19;5026374;28;20029;-68
2023/11/16 06:41:13;;;;;;;8.27;7.50;;;;;;;-145.63;58.13;39368.44;5018575;28;20038;-69
2023/11/16 06:43:39;;;;;;;8.00;7.30;;;;;;;-145.63;57.76;39376.28;5006569;28;20026;-69
2023/11/16 06:46:12;;;;;;;7.20;6.45;;;;;;;-145.63;57.32;39376.28;4994664;28;20093;-69
2023/11/16 06:48:39;;;;;;;7.65;6.85;;;;;;;-145.63;57.68;39391.91;4994590;28;20253;-70
2023/11/16 06:51:08;;;;;;;8.18;6.45;;;;;;;-145.63;57.54;39403.66;5006477;28;20066;-70
2023/11/16 06:53:35;;;;;;;6.18;5.57;;;;;;;-145.63;57.50;39378.22;5006651;28;20022;-68
2023/11/16 06:56:04;;;;;;;6.30;5.80;;;;;;;-145.63;57.39;39341.06;4987157;28;20026;-69
2023/11/16 06:58:31;;;;;;;7.07;6.28;;;;;;;-145.63;57.84;39368.44;5002313;28;20023;-69
2023/11/16 07:00:58;;;;;;;6.38;5.78;;;;;;;-145.63;58.16;39389.97;5011210;28;20037;-69
2023/11/16 07:03:25;;;;;;;5.13;4.70;;;;;;;-145.63;57.98;39341.06;5005407;28;20026;-69
2023/11/16 07:05:52;;;;;;;5.20;4.80;;;;;;;-145.63;57.85;39403.66;5006070;28;20093;-70
2023/11/16 07:08:19;;;;;;;6.10;5.13;;;;;;;-145.63;57.51;39380.19;5006452;28;20378;-68
2023/11/16 07:10:45;;;;;;;5.80;5.30;;;;;;;-145.63;57.89;39372.34;5005471;28;20065;-67
2023/11/16 07:13:14;;;;;;;7.70;6.95;;;;;;;-145.63;57.33;39388.00;5004629;28;20322;-70
2023/11/16 07:15:50;;;;;;;6.70;6.10;;;;;;;-145.63;57.51;39380.19;5004865;28;20030;-69
2023/11/16 07:18:19;;;;;;;5.40;5.00;;;;;;;-145.63;57.73;39268.72;5006410;28;20019;-69
2023/11/16 07:20:47;;;;;;;5.15;4.65;;;;;;;-145.63;57.32;39352.81;5005451;28;20051;-69
2023/11/16 07:23:14;;;;;;;6.53;4.93;;;;;;;-145.63;57.60;39370.41;5006177;28;20344;-69
2023/11/16 07:25:43;;;;;;;4.75;4.35;;;;;;;-145.63;57.61;39358.66;4989500;28;20082;-69
2023/11/16 07:28:10;;;;;;;8.32;6.35;;;;;;;-145.63;58.24;39360.63;4998724;28;20026;-69
2023/11/16 07:30:36;;;;;;;7.95;7.15;;;;;;;-145.63;58.14;39378.22;5003601;28;20102;-69
2023/11/16 07:33:03;;;;;;;5.78;5.28;;;;;;;-145.63;58.20;39370.41;5001695;28;20062;-70
2023/11/16 07:35:29;;;;;;;6.18;5.15;;;;;;;-145.63;58.37;39378.22;4987086;28;20058;-71
2023/11/16 07:37:54;;;;;;;5.60;5.10;;;;;;;-145.63;58.23;39380.19;5005586;28;20341;-69
2023/11/16 07:40:20;;;;;;;6.10;5.60;;;;;;;-145.63;57.86;39389.97;4992178;28;20255;-70
2023/11/16 07:42:47;;;;;;;6.22;5.63;;;;;;;-145.63;57.76;39389.97;4994795;28;20022;-69
2023/11/16 07:45:14;;;;;;;6.90;5.80;;;;;;;-145.63;57.82;39403.66;5001129;28;20116;-69
2023/11/16 07:47:41;;;;;;;6.63;6.03;;;;;;;-145.63;57.84;39352.81;4986527;28;20038;-69
2023/11/16 07:50:11;;;;;;;7.40;6.50;;;;;;;-145.63;57.60;39397.78;5005455;28;20050;-69
2023/11/16 07:52:43;;;;;;;7.10;6.13;;;;;;;-145.63;57.63;39388.00;5005937;28;20327;-69
2023/11/16 07:55:16;;;;;;;7.28;6.57;;;;;;;-145.63;57.31;39376.28;4976546;28;20031;-69
2023/11/16 07:57:48;;;;;;;6.40;5.80;;;;;;;-145.63;57.46;39397.78;4990849;28;20040;-69
2023/11/16 08:00:26;;;;;;;7.25;6.55;;;;;;;-145.63;57.44;39376.28;4990463;28;20198;-69
2023/11/16 08:05:42;;;;;;;6.30;5.70;;;;;;;-145.63;58.07;39378.22;4989094;28;20038;-69
2023/11/16 08:08:12;;;;;;;6.07;5.50;;;;;;;-145.63;57.91;39434.94;4984381;28;20031;-68
2023/11/16 08:10:38;;;;;;;6.38;5.35;;;;;;;-145.63;57.34;39350.84;5001419;28;20283;-69
2023/11/16 08:13:05;;;;;;;5.72;5.22;;;;;;;-145.63;57.52;39395.84;5005102;28;20093;-69
2023/11/16 08:15:34;;;;;;;7.45;6.07;;;;;;;-145.63;57.26;39266.75;5005410;28;20030;-69
2023/11/16 08:18:01;;;;;;;6.57;5.97;;;;;;;-145.63;57.94;39346.94;5003872;28;20140;-70
2023/11/16 08:20:28;;;;;;;7.63;6.93;;;;;;;-145.63;58.14;39364.53;5005325;28;20077;-69
2023/11/16 08:22:56;;;;;;;6.53;5.95;;;;;;;-145.63;58.01;39368.44;4986258;28;20155;-69
2023/11/16 08:25:23;;;;;;;6.88;6.28;;;;;;;-145.63;57.88;39384.09;4998908;28;20018;-69
2023/11/16 08:27:51;;;;;;;7.30;6.60;;;;;;;-145.63;56.77;38885.41;4994801;28;20026;-68
2023/11/16 08:30:17;;;;;;;7.57;6.88;;;;;;;-145.63;57.02;39391.91;4989982;28;20030;-69
2023/11/16 08:32:44;;;;;;;7.55;6.90;;;;;;;-145.63;57.70;39397.78;5003591;28;20050;-69
2023/11/16 08:35:10;;;;;;;7.82;7.13;;;;;;;-145.63;57.23;39364.53;5004863;28;20038;-69
2023/11/16 08:37:41;;;;;;;7.50;6.80;;;;;;;-145.63;57.68;39368.44;4993574;28;20207;-69
2023/11/16 08:40:16;;;;;;;8.13;7.43;;;;;;;-145.63;57.41;39374.31;4994229;28;20136;-69
2023/11/16 08:42:42;;;;;;;8.35;7.55;;;;;;;-145.63;57.84;39374.31;4991879;28;20030;-68
2023/11/16 08:45:20;;;;;;;9.98;8.75;;;;;;;-145.63;57.66;39370.41;4992548;28;20042;-69
2023/11/16 08:47:48;;;;;;;9.32;8.35;;;;;;;-145.63;57.45;39366.50;4985876;28;20054;-67
2023/11/16 08:50:16;;;;;;;9.32;8.43;;;;;;;-145.63;57.65;39378.22;5001384;28;20034;-68
2023/11/16 08:52:45;;;;;;;8.85;7.95;;;;;;;-145.63;57.20;39343.03;4987537;28;20030;-69
2023/11/16 08:55:12;;;;;;;10.57;9.48;;;;;;;-145.63;57.12;39389.97;4997445;28;20030;-69
2023/11/16 08:57:42;;;;;;;8.68;7.88;;;;;;;-145.63;57.29;39386.06;5004285;28;20048;-69
2023/11/16 09:00:27;;;;;;;10.65;9.27;;;;;;;-145.63;57.20;39356.72;5000080;28;20358;-67
2023/11/16 09:02:58;;;;;;;9.45;8.48;;;;;;;-145.63;57.74;39399.75;4986309;28;20054;-68
2023/11/16 09:05:24;;;;;;;9.80;8.80;;;;;;;-145.63;57.28;39075.09;5004337;28;20311;-68
2023/11/16 09:07:54;;;;;;;10.05;8.88;;;;;;;-145.63;56.55;39348.88;5002933;28;20033;-69
2023/11/16 09:10:21;;;;;;;8.90;8.10;;;;;;;-145.63;57.15;39317.59;4998260;28;21183;-68
2023/11/16 09:12:49;;;;;;;9.77;8.88;;;;;;;-145.63;57.00;39374.31;4995000;28;20098;-68
2023/11/16 09:15:16;;;;;;;9.15;8.05;;;;;;;-145.63;57.42;39433.00;4995425;28;20058;-69
2023/11/16 09:17:46;;;;;;;8.95;7.80;;;;;;;-145.63;57.13;39346.94;4989881;28;20035;-68
2023/11/16 09:20:13;;;;;;;10.18;9.00;;;;;;;-145.63;57.84;39407.56;4984365;28;20032;-68
2023/11/16 09:22:42;;;;;;;9.90;9.00;;;;;;;-145.63;57.80;39237.41;4999641;28;20026;-68
2023/11/16 09:25:15;;;;;;;9.40;8.40;;;;;;;-145.63;57.63;39360.63;4992880;28;20034;-69
2023/11/16 09:27:42;;;;;;;8.27;7.53;;;;;;;-145.63;57.47;39372.34;4990605;28;20089;-70
2023/11/16 09:30:14;;;;;;;7.18;6.53;;;;;;;-145.63;57.02;39348.88;4992266;28;20270;-68
2023/11/16 09:32:40;;;;;;;;;;;;;;;-145.63;57.24;39382.13;4990220;28;20119;-68
2023/11/16 09:35:08;;;;;;;7.53;6.88;;;;;;;-145.63;57.45;39364.53;4984659;28;19929;-69
2023/11/16 09:37:34;;;;;;;7.60;6.63;;;;;;;-145.63;56.88;39331.28;5002586;28;20101;-72
2023/11/16 09:40:04;;;;;;;8.18;6.90;;;;;;;-145.63;56.99;39343.03;4995245;28;20033;-69
2023/11/16 09:42:33;;;;;;;7.60;6.78;;;;;;;-145.63;57.18;39352.81;4992719;28;20089;-69
2023/11/16 09:45:02;;;;;;;7.35;6.30;;;;;;;-145.63;56.53;39335.19;5000633;28;20034;-69
2023/11/16 09:47:37;;;;;;;8.23;7.38;;;;;;;-145.63;57.31;39354.75;4984306;28;20026;-68
2023/11/16 09:50:08;;;;;;;8.57;6.45;;;;;;;-145.63;56.79;39393.88;5001836;28;20089;-68
2023/11/16 09:52:38;;;;;;;6.90;6.30;;;;;;;-145.63;56.06;39372.34;5003466;28;20088;-70
2023/11/16 09:55:09;;;;;;;8.05;6.90;;;;;;;-145.63;56.24;39360.63;4992878;28;20027;-68
2023/11/16 09:57:37;;;;;;;8.85;5.90;;;;;;;-145.63;55.55;39360.63;5002767;28;20033;-69
2023/11/16 10:00:15;;;;;;;6.65;5.72;;;;;;;-145.63;55.89;39368.44;4999818;28;20034;-69
2023/11/16 10:02:43;;;;;;;6.60;5.95;;;;;;;-145.63;56.26;39337.16;4984153;28;20023;-69
2023/11/16 10:05:34;;;;;;;6.55;5.55;;;;;;;-145.63;56.05;39374.31;5002480;28;20045;-68
2023/11/16 10:08:08;;;;;;;6.25;5.72;;;;;;;-145.63;56.14;38844.34;4984085;28;20034;-70
2023/11/16 10:10:37;;;;;;;7.55;6.05;;;;;;;-145.63;55.84;39362.59;4996591;28;20191;-69
2023/11/16 10:13:08;;;;;;;7.05;5.40;;;;;;;-145.63;55.80;39362.59;5001889;28;20065;-69
2023/11/16 10:15:35;;;;;;;5.55;5.05;;;;;;;-145.63;56.03;39372.34;5002918;28;20034;-69
2023/11/16 10:18:09;;;;;;;6.00;5.40;;;;;;;-145.63;56.18;39389.97;4997549;28;20031;-70
2023/11/16 10:20:38;;;;;;;7.95;4.85;;;;;;;-145.63;55.39;39391.91;4982510;28;20057;-70
2023/11/16 10:23:04;;;;;;;7.22;5.20;;;;;;;-145.63;55.45;39366.50;5001394;28;20032;-69
2023/11/16 10:25:29;;;;;;;4.43;3.95;;;;;;;-145.63;54.61;39360.63;4997322;28;20053;-69
2023/11/16 10:27:55;;;;;;;3.90;3.55;;;;;;;-145.63;54.90;39372.34;4994263;28;20038;-70
2023/11/16 10:30:24;;;;;;;4.15;3.75;;;;;;;-145.63;54.65;39255.00;4985469;28;20043;-69
2023/11/16 10:32:51;;;;;;;4.47;3.75;;;;;;;-145.63;54.59;39378.22;4984533;28;20117;-70
2023/11/16 10:35:23;;;;;;;3.22;3.00;;;;;;;-145.63;53.88;39403.66;4971382;28;20045;-70
2023/11/16 10:37:50;;;;;;;3.75;3.40;;;;;;;-145.63;54.13;39354.75;5001768;28;20022;-70
2023/11/16 10:40:17;;;;;;;4.53;3.55;;;;;;;-145.63;54.78;39393.88;4991470;28;20073;-70
2023/11/16 10:42:43;;;;;;;3.75;3.45;;;;;;;-145.63;54.37;39384.09;4990473;28;20030;-70
2023/11/16 10:45:12;;;;;;;3.67;3.35;;;;;;;-145.63;54.25;39391.91;4998216;28;20042;-70
2023/11/16 10:47:42;;;;;;;4.65;3.90;;;;;;;-145.63;53.69;39395.84;5002418;28;20018;-70
2023/11/16 10:50:10;;;;;;;5.10;4.30;;;;;;;-145.63;54.17;39395.84;4988108;28;20030;-69
2023/11/16 10:52:39;;;;;;;6.82;4.28;;;;;;;-145.63;53.79;39350.84;4997485;28;20227;-70
2023/11/16 10:55:16;;;;;;;5.55;4.20;;;;;;;-145.63;53.70;39037.94;4993283;28;20023;-69
2023/11/16 10:57:47;;;;;;;4.97;4.47;;;;;;;-145.63;53.57;39386.06;5001510;28;20030;-70
2023/11/16 11:00:18;;;;;;;6.45;5.32;;;;;;;-145.63;53.82;39362.59;4999891;28;20106;-70
2023/11/16 11:02:47;;;;;;;5.57;4.80;;;;;;;-145.63;54.03;39360.63;4983353;28;20033;-69
2023/11/16 11:05:19;;;;;;;6.13;5.50;;;;;;;-145.63;53.43;39301.94;5001753;28;20026;-69
2023/11/16 11:07:54;;;;;;;;;;;;;;;-145.63;52.99;39356.72;5001849;28;20349;-70
2023/11/16 11:10:27;;;;;;;7.45;6.03;;;;;;;-145.63;53.49;39431.03;5002428;28;19912;-70
2023/11/16 11:12:54;;;;;;;6.35;5.60;;;;;;;-145.63;53.66;39372.34;5002449;28;20052;-70
2023/11/16 11:15:39;;;;;;;7.22;5.05;;;;;;;-145.63;53.95;39389.97;5002516;28;20050;-71